sensor_id;sensor_type;location;lat;lon;timestamp;pressure;altitude;pressure_sealevel;temperature;humidity
40982;BME280;26708;50.304;19.028;2022-12-07T00:01:41;97879.91;;;4.12;66.49
40982;BME280;26708;50.304;19.028;2022-12-07T00:03:49;97879.88;;;4.09;66.67
40982;BME280;26708;50.304;19.028;2022-12-07T00:05:57;97685.34;;;2.93;66.73
40982;BME280;26708;50.304;19.028;2022-12-07T00:08:02;97885.94;;;4.11;66.68
40982;BME280;26708;50.304;19.028;2022-12-07T00:10:07;97703.56;;;3.02;66.70
40982;BME280;26708;50.304;19.028;2022-12-07T00:12:15;97889.41;;;4.13;67.05
40982;BME280;26708;50.304;19.028;2022-12-07T00:14:20;97850.41;;;3.97;66.79
40982;BME280;26708;50.304;19.028;2022-12-07T00:16:27;97852.84;;;3.83;66.71
40982;BME280;26708;50.304;19.028;2022-12-07T00:18:35;97751.22;;;3.23;66.71
40982;BME280;26708;50.304;19.028;2022-12-07T00:20:40;97767.91;;;3.49;66.62
40982;BME280;26708;50.304;19.028;2022-12-07T00:22:44;97748.75;;;3.32;66.60
40982;BME280;26708;50.304;19.028;2022-12-07T00:24:50;97738.28;;;3.25;66.78
40982;BME280;26708;50.304;19.028;2022-12-07T00:26:54;97876.47;;;4.13;66.88
40982;BME280;26708;50.304;19.028;2022-12-07T00:29:04;97832.19;;;3.88;66.87
40982;BME280;26708;50.304;19.028;2022-12-07T00:31:12;97758.22;;;3.33;66.75
40982;BME280;26708;50.304;19.028;2022-12-07T00:33:17;97877.34;;;4.13;66.81
40982;BME280;26708;50.304;19.028;2022-12-07T00:35:22;97877.38;;;4.15;66.92
40982;BME280;26708;50.304;19.028;2022-12-07T00:37:27;97746.28;;;3.43;66.77
40982;BME280;26708;50.304;19.028;2022-12-07T00:39:31;97844.44;;;4.03;66.64
40982;BME280;26708;50.304;19.028;2022-12-07T00:41:36;97780.97;;;3.60;66.50
40982;BME280;26708;50.304;19.028;2022-12-07T00:43:43;97870.56;;;4.23;66.60
40982;BME280;26708;50.304;19.028;2022-12-07T00:45:50;97701.16;;;3.17;66.49
40982;BME280;26708;50.304;19.028;2022-12-07T00:47:55;97825.41;;;4.01;66.51
40982;BME280;26708;50.304;19.028;2022-12-07T00:50:00;97866.28;;;4.26;66.42
40982;BME280;26708;50.304;19.028;2022-12-07T00:52:05;97760.34;;;3.66;66.31
40982;BME280;26708;50.304;19.028;2022-12-07T00:54:09;97698.66;;;3.21;66.16
40982;BME280;26708;50.304;19.028;2022-12-07T00:56:17;97879.28;;;4.31;66.20
40982;BME280;26708;50.304;19.028;2022-12-07T00:58:23;97740.28;;;3.47;66.20
40982;BME280;26708;50.304;19.028;2022-12-07T01:00:27;97691.88;;;3.32;66.18
40982;BME280;26708;50.304;19.028;2022-12-07T01:02:35;97601.66;;;2.77;65.76
40982;BME280;26708;50.304;19.028;2022-12-07T01:04:40;97775.00;;;3.64;66.14
40982;BME280;26708;50.304;19.028;2022-12-07T01:06:44;97705.69;;;3.34;66.01
40982;BME280;26708;50.304;19.028;2022-12-07T01:08:49;97793.22;;;3.76;66.18
40982;BME280;26708;50.304;19.028;2022-12-07T01:10:58;97730.81;;;3.46;66.04
40982;BME280;26708;50.304;19.028;2022-12-07T01:13:03;97804.69;;;3.96;66.16
40982;BME280;26708;50.304;19.028;2022-12-07T01:15:09;97697.00;;;3.28;66.26
40982;BME280;26708;50.304;19.028;2022-12-07T01:17:14;97853.22;;;4.19;66.43
40982;BME280;26708;50.304;19.028;2022-12-07T01:19:21;97720.44;;;3.43;66.32
40982;BME280;26708;50.304;19.028;2022-12-07T01:21:28;97796.78;;;3.84;66.42
40982;BME280;26708;50.304;19.028;2022-12-07T01:23:36;97850.69;;;4.23;66.49
40982;BME280;26708;50.304;19.028;2022-12-07T01:25:41;97849.84;;;4.24;66.47
40982;BME280;26708;50.304;19.028;2022-12-07T01:27:47;97846.41;;;4.25;66.47
40982;BME280;26708;50.304;19.028;2022-12-07T01:29:51;97706.72;;;3.50;66.46
40982;BME280;26708;50.304;19.028;2022-12-07T01:31:56;97816.75;;;3.98;66.37
40982;BME280;26708;50.304;19.028;2022-12-07T01:34:01;97736.13;;;3.59;66.53
40982;BME280;26708;50.304;19.028;2022-12-07T01:36:14;97756.06;;;3.68;66.55
40982;BME280;26708;50.304;19.028;2022-12-07T01:38:20;97642.50;;;3.11;66.38
40982;BME280;26708;50.304;19.028;2022-12-07T01:40:26;97643.44;;;3.13;66.49
40982;BME280;26708;50.304;19.028;2022-12-07T01:42:30;97843.91;;;4.34;66.65
40982;BME280;26708;50.304;19.028;2022-12-07T01:47:36;97838.72;;;4.36;66.72
40982;BME280;26708;50.304;19.028;2022-12-07T01:49:44;97701.59;;;3.53;66.56
40982;BME280;26708;50.304;19.028;2022-12-07T01:52:02;97658.25;;;3.31;66.61
40982;BME280;26708;50.304;19.028;2022-12-07T01:54:13;97537.84;;;2.67;66.41
40982;BME280;26708;50.304;19.028;2022-12-07T01:56:24;97833.59;;;4.39;66.60
40982;BME280;26708;50.304;19.028;2022-12-07T01:58:30;97750.25;;;3.90;66.53
40982;BME280;26708;50.304;19.028;2022-12-07T02:00:36;97696.50;;;3.60;66.40
40982;BME280;26708;50.304;19.028;2022-12-07T02:02:45;97842.25;;;4.41;66.63
40982;BME280;26708;50.304;19.028;2022-12-07T02:04:54;97840.53;;;4.43;66.74
40982;BME280;26708;50.304;19.028;2022-12-07T02:07:05;97837.94;;;4.40;66.65
40982;BME280;26708;50.304;19.028;2022-12-07T02:09:09;97675.69;;;3.48;66.42
40982;BME280;26708;50.304;19.028;2022-12-07T02:11:15;97804.09;;;4.23;66.74
40982;BME280;26708;50.304;19.028;2022-12-07T02:13:25;97839.72;;;4.47;66.80
40982;BME280;26708;50.304;19.028;2022-12-07T02:15:42;97680.88;;;3.51;66.64
40982;BME280;26708;50.304;19.028;2022-12-07T02:18:04;97697.47;;;3.71;66.84
40982;BME280;26708;50.304;19.028;2022-12-07T02:20:28;97831.09;;;4.51;66.72
40982;BME280;26708;50.304;19.028;2022-12-07T02:26:03;97733.94;;;3.97;66.80
40982;BME280;26708;50.304;19.028;2022-12-07T02:28:32;97842.31;;;4.47;66.71
40982;BME280;26708;50.304;19.028;2022-12-07T02:30:46;97786.84;;;4.24;66.64
40982;BME280;26708;50.304;19.028;2022-12-07T02:32:59;97845.84;;;4.58;66.80
40982;BME280;26708;50.304;19.028;2022-12-07T02:35:11;97744.34;;;4.04;66.61
40982;BME280;26708;50.304;19.028;2022-12-07T02:37:27;97836.34;;;4.57;66.68
40982;BME280;26708;50.304;19.028;2022-12-07T02:39:45;97688.00;;;3.73;66.54
40982;BME280;26708;50.304;19.028;2022-12-07T02:41:58;97832.06;;;4.57;66.39
40982;BME280;26708;50.304;19.028;2022-12-07T02:44:11;97722.72;;;3.96;66.42
40982;BME280;26708;50.304;19.028;2022-12-07T02:46:24;97798.22;;;4.41;66.38
40982;BME280;26708;50.304;19.028;2022-12-07T02:48:32;97728.69;;;3.89;66.40
40982;BME280;26708;50.304;19.028;2022-12-07T02:50:38;97681.06;;;3.71;66.25
40982;BME280;26708;50.304;19.028;2022-12-07T02:52:43;97794.84;;;4.51;66.27
40982;BME280;26708;50.304;19.028;2022-12-07T02:54:47;97819.16;;;4.65;66.14
40982;BME280;26708;50.304;19.028;2022-12-07T02:57:00;97819.97;;;4.62;66.15
40982;BME280;26708;50.304;19.028;2022-12-07T02:59:22;97817.41;;;4.61;66.24
40982;BME280;26708;50.304;19.028;2022-12-07T03:01:42;97702.84;;;3.91;66.09
40982;BME280;26708;50.304;19.028;2022-12-07T03:04:04;97673.31;;;3.72;66.10
40982;BME280;26708;50.304;19.028;2022-12-07T03:06:22;97810.47;;;4.58;66.25
40982;BME280;26708;50.304;19.028;2022-12-07T03:08:38;97803.56;;;4.57;66.20
40982;BME280;26708;50.304;19.028;2022-12-07T03:10:58;97708.00;;;3.88;66.14
40982;BME280;26708;50.304;19.028;2022-12-07T03:13:09;97815.59;;;4.55;66.29
40982;BME280;26708;50.304;19.028;2022-12-07T03:15:25;97813.91;;;4.56;66.28
40982;BME280;26708;50.304;19.028;2022-12-07T03:17:39;97712.28;;;3.87;66.26
40982;BME280;26708;50.304;19.028;2022-12-07T03:19:47;97711.53;;;3.96;66.34
40982;BME280;26708;50.304;19.028;2022-12-07T03:21:59;97813.03;;;4.57;66.28
40982;BME280;26708;50.304;19.028;2022-12-07T03:24:14;97797.47;;;4.52;66.23
40982;BME280;26708;50.304;19.028;2022-12-07T03:26:23;97814.75;;;4.58;66.30
40982;BME280;26708;50.304;19.028;2022-12-07T03:28:40;97812.19;;;4.56;66.14
40982;BME280;26708;50.304;19.028;2022-12-07T03:30:54;97800.84;;;4.45;66.20
40982;BME280;26708;50.304;19.028;2022-12-07T03:33:08;97708.88;;;3.91;66.40
40982;BME280;26708;50.304;19.028;2022-12-07T03:35:22;97813.78;;;4.44;66.60
40982;BME280;26708;50.304;19.028;2022-12-07T03:37:34;97756.63;;;4.21;66.55
40982;BME280;26708;50.304;19.028;2022-12-07T03:39:48;97742.78;;;4.18;66.49
40982;BME280;26708;50.304;19.028;2022-12-07T03:41:56;97617.91;;;3.46;66.38
40982;BME280;26708;50.304;19.028;2022-12-07T03:44:06;97720.22;;;4.03;66.33
40982;BME280;26708;50.304;19.028;2022-12-07T03:46:20;97664.78;;;3.82;66.35
40982;BME280;26708;50.304;19.028;2022-12-07T03:48:40;97820.00;;;4.64;66.25
40982;BME280;26708;50.304;19.028;2022-12-07T03:50:54;97786.28;;;4.58;66.08
40982;BME280;26708;50.304;19.028;2022-12-07T03:53:13;97698.59;;;3.98;66.17
40982;BME280;26708;50.304;19.028;2022-12-07T03:55:28;97798.38;;;4.59;66.23
40982;BME280;26708;50.304;19.028;2022-12-07T03:57:37;97807.88;;;4.60;66.13
40982;BME280;26708;50.304;19.028;2022-12-07T03:59:43;97787.97;;;4.53;66.29
40982;BME280;26708;50.304;19.028;2022-12-07T04:01:52;97772.31;;;4.39;66.17
40982;BME280;26708;50.304;19.028;2022-12-07T04:04:01;97776.59;;;4.34;66.35
40982;BME280;26708;50.304;19.028;2022-12-07T04:06:06;97789.66;;;4.48;66.19
40982;BME280;26708;50.304;19.028;2022-12-07T04:08:10;97688.91;;;3.77;66.05
40982;BME280;26708;50.304;19.028;2022-12-07T04:10:16;97625.66;;;3.48;66.23
40982;BME280;26708;50.304;19.028;2022-12-07T04:12:21;97797.50;;;4.57;66.49
40982;BME280;26708;50.304;19.028;2022-12-07T04:14:25;97661.25;;;3.71;66.19
40982;BME280;26708;50.304;19.028;2022-12-07T04:16:31;97688.91;;;3.75;65.89
40982;BME280;26708;50.304;19.028;2022-12-07T04:18:35;97801.75;;;4.52;66.03
40982;BME280;26708;50.304;19.028;2022-12-07T04:20:42;97796.59;;;4.50;66.08
40982;BME280;26708;50.304;19.028;2022-12-07T04:22:47;97647.22;;;3.48;66.00
40982;BME280;26708;50.304;19.028;2022-12-07T04:24:52;97744.47;;;4.14;66.08
40982;BME280;26708;50.304;19.028;2022-12-07T04:26:56;97684.47;;;3.65;66.05
40982;BME280;26708;50.304;19.028;2022-12-07T04:29:02;97690.72;;;3.85;66.00
40982;BME280;26708;50.304;19.028;2022-12-07T04:31:06;97795.66;;;4.42;65.97
40982;BME280;26708;50.304;19.028;2022-12-07T04:33:11;97783.53;;;4.37;65.77
40982;BME280;26708;50.304;19.028;2022-12-07T04:35:16;97774.72;;;4.20;65.79
40982;BME280;26708;50.304;19.028;2022-12-07T04:37:24;97647.28;;;3.53;65.54
40982;BME280;26708;50.304;19.028;2022-12-07T04:39:30;97673.97;;;3.50;65.34
40982;BME280;26708;50.304;19.028;2022-12-07T04:41:36;97784.22;;;4.21;65.87
40982;BME280;26708;50.304;19.028;2022-12-07T04:43:43;97787.63;;;4.17;65.93
40982;BME280;26708;50.304;19.028;2022-12-07T04:45:48;97803.25;;;4.26;66.05
40982;BME280;26708;50.304;19.028;2022-12-07T04:47:53;97804.13;;;4.26;66.11
40982;BME280;26708;50.304;19.028;2022-12-07T04:49:58;97798.94;;;4.25;66.06
40982;BME280;26708;50.304;19.028;2022-12-07T04:52:02;97746.88;;;3.95;65.96
40982;BME280;26708;50.304;19.028;2022-12-07T04:54:11;97612.50;;;3.22;66.07
40982;BME280;26708;50.304;19.028;2022-12-07T04:56:17;97700.00;;;3.64;65.84
40982;BME280;26708;50.304;19.028;2022-12-07T04:58:22;97753.03;;;4.06;65.98
40982;BME280;26708;50.304;19.028;2022-12-07T05:00:28;97776.38;;;4.13;66.04
40982;BME280;26708;50.304;19.028;2022-12-07T05:02:32;97685.38;;;3.70;66.13
40982;BME280;26708;50.304;19.028;2022-12-07T05:04:37;97796.44;;;4.35;65.94
40982;BME280;26708;50.304;19.028;2022-12-07T05:06:42;97757.38;;;4.13;65.85
40982;BME280;26708;50.304;19.028;2022-12-07T05:08:46;97667.94;;;3.51;65.77
40982;BME280;26708;50.304;19.028;2022-12-07T05:10:53;97742.63;;;4.00;65.89
40982;BME280;26708;50.304;19.028;2022-12-07T05:12:58;97723.31;;;3.70;65.81
40982;BME280;26708;50.304;19.028;2022-12-07T05:15:04;97682.72;;;3.63;65.83
40982;BME280;26708;50.304;19.028;2022-12-07T05:17:09;97738.28;;;3.99;65.83
40982;BME280;26708;50.304;19.028;2022-12-07T05:19:15;97799.88;;;4.36;65.96
40982;BME280;26708;50.304;19.028;2022-12-07T05:21:20;97787.72;;;4.29;65.70
40982;BME280;26708;50.304;19.028;2022-12-07T05:23:24;97799.00;;;4.32;65.76
40982;BME280;26708;50.304;19.028;2022-12-07T05:25:29;97697.41;;;3.65;65.69
40982;BME280;26708;50.304;19.028;2022-12-07T05:27:36;97769.41;;;4.06;65.91
40982;BME280;26708;50.304;19.028;2022-12-07T05:29:43;97753.78;;;3.98;65.88
40982;BME280;26708;50.304;19.028;2022-12-07T05:31:48;97799.81;;;4.27;66.15
40982;BME280;26708;50.304;19.028;2022-12-07T05:33:53;97703.41;;;3.61;66.01
40982;BME280;26708;50.304;19.028;2022-12-07T05:35:59;97684.25;;;3.46;65.94
40982;BME280;26708;50.304;19.028;2022-12-07T05:38:07;97583.78;;;2.94;66.00
40982;BME280;26708;50.304;19.028;2022-12-07T05:40:12;97686.22;;;3.65;65.82
40982;BME280;26708;50.304;19.028;2022-12-07T05:42:18;97810.19;;;4.28;65.93
40982;BME280;26708;50.304;19.028;2022-12-07T05:44:23;97662.72;;;3.45;65.98
40982;BME280;26708;50.304;19.028;2022-12-07T05:46:28;97639.13;;;3.15;65.86
40982;BME280;26708;50.304;19.028;2022-12-07T05:48:32;97678.25;;;3.48;66.06
40982;BME280;26708;50.304;19.028;2022-12-07T05:50:38;97628.69;;;3.08;65.93
40982;BME280;26708;50.304;19.028;2022-12-07T05:52:43;97797.09;;;4.16;66.08
40982;BME280;26708;50.304;19.028;2022-12-07T05:54:47;97810.09;;;4.19;66.06
40982;BME280;26708;50.304;19.028;2022-12-07T05:56:52;97799.66;;;4.10;66.02
40982;BME280;26708;50.304;19.028;2022-12-07T05:58:57;97808.28;;;4.11;65.99
40982;BME280;26708;50.304;19.028;2022-12-07T06:01:16;97768.41;;;3.91;66.36
40982;BME280;26708;50.304;19.028;2022-12-07T06:03:22;97773.59;;;3.91;66.40
40982;BME280;26708;50.304;19.028;2022-12-07T06:05:26;97806.53;;;4.07;66.45
40982;BME280;26708;50.304;19.028;2022-12-07T06:07:31;97793.44;;;3.95;66.56
40982;BME280;26708;50.304;19.028;2022-12-07T06:09:36;97807.28;;;3.98;66.61
40982;BME280;26708;50.304;19.028;2022-12-07T06:11:41;97809.84;;;3.97;66.69
40982;BME280;26708;50.304;19.028;2022-12-07T06:13:58;97684.88;;;3.24;66.74
40982;BME280;26708;50.304;19.028;2022-12-07T06:16:03;97810.75;;;4.00;66.67
40982;BME280;26708;50.304;19.028;2022-12-07T06:18:11;97716.84;;;3.30;66.58
40982;BME280;26708;50.304;19.028;2022-12-07T06:20:16;97775.16;;;3.77;66.70
40982;BME280;26708;50.304;19.028;2022-12-07T06:22:21;97637.16;;;2.93;66.49
40982;BME280;26708;50.304;19.028;2022-12-07T06:24:26;97699.56;;;3.26;66.50
40982;BME280;26708;50.304;19.028;2022-12-07T06:26:30;97716.97;;;3.41;66.49
40982;BME280;26708;50.304;19.028;2022-12-07T06:28:36;97823.75;;;4.03;66.56
40982;BME280;26708;50.304;19.028;2022-12-07T06:30:41;97828.91;;;4.03;66.66
40982;BME280;26708;50.304;19.028;2022-12-07T06:32:46;97823.75;;;4.05;66.57
40982;BME280;26708;50.304;19.028;2022-12-07T06:34:53;97828.91;;;4.05;66.58
40982;BME280;26708;50.304;19.028;2022-12-07T06:36:59;97827.19;;;4.04;66.62
40982;BME280;26708;50.304;19.028;2022-12-07T06:39:03;97680.44;;;3.12;66.51
40982;BME280;26708;50.304;19.028;2022-12-07T06:41:11;97835.00;;;4.07;66.43
40982;BME280;26708;50.304;19.028;2022-12-07T06:43:15;97715.28;;;3.43;66.36
40982;BME280;26708;50.304;19.028;2022-12-07T06:45:19;97830.69;;;4.06;66.52
40982;BME280;26708;50.304;19.028;2022-12-07T06:47:25;97817.63;;;3.98;66.72
40982;BME280;26708;50.304;19.028;2022-12-07T06:49:29;97722.94;;;3.37;66.50
40982;BME280;26708;50.304;19.028;2022-12-07T06:51:37;97653.69;;;3.07;66.28
40982;BME280;26708;50.304;19.028;2022-12-07T06:53:43;97690.78;;;3.14;66.24
40982;BME280;26708;50.304;19.028;2022-12-07T06:55:47;97737.63;;;3.39;66.35
40982;BME280;26708;50.304;19.028;2022-12-07T06:57:51;97828.09;;;4.06;66.41
40982;BME280;26708;50.304;19.028;2022-12-07T06:59:57;97700.38;;;3.22;66.37
40982;BME280;26708;50.304;19.028;2022-12-07T07:02:01;97742.09;;;3.52;66.37
40982;BME280;26708;50.304;19.028;2022-12-07T07:04:05;97826.41;;;4.11;66.23
40982;BME280;26708;50.304;19.028;2022-12-07T07:06:11;97802.91;;;3.93;66.30
40982;BME280;26708;50.304;19.028;2022-12-07T07:08:18;97740.34;;;3.51;66.21
40982;BME280;26708;50.304;19.028;2022-12-07T07:10:23;97700.47;;;3.31;66.40
40982;BME280;26708;50.304;19.028;2022-12-07T07:12:28;97830.75;;;4.13;66.44
40982;BME280;26708;50.304;19.028;2022-12-07T07:14:33;97832.50;;;4.16;66.34
40982;BME280;26708;50.304;19.028;2022-12-07T07:16:37;97774.31;;;3.81;66.35
40982;BME280;26708;50.304;19.028;2022-12-07T07:18:42;97802.13;;;3.98;66.13
40982;BME280;26708;50.304;19.028;2022-12-07T07:20:47;97842.81;;;4.13;66.15
40982;BME280;26708;50.304;19.028;2022-12-07T07:22:53;97801.25;;;3.97;66.01
40982;BME280;26708;50.304;19.028;2022-12-07T07:25:02;97749.09;;;3.61;66.34
40982;BME280;26708;50.304;19.028;2022-12-07T07:27:06;97692.75;;;3.33;66.30
40982;BME280;26708;50.304;19.028;2022-12-07T07:29:11;97696.13;;;3.27;66.32
40982;BME280;26708;50.304;19.028;2022-12-07T07:31:16;97759.41;;;3.59;65.96
40982;BME280;26708;50.304;19.028;2022-12-07T07:33:21;97723.94;;;3.48;66.21
40982;BME280;26708;50.304;19.028;2022-12-07T07:35:25;97730.06;;;3.54;66.20
40982;BME280;26708;50.304;19.028;2022-12-07T07:37:31;97693.59;;;3.33;66.35
40982;BME280;26708;50.304;19.028;2022-12-07T07:39:35;97840.28;;;4.16;66.30
40982;BME280;26708;50.304;19.028;2022-12-07T07:41:42;97628.41;;;2.84;66.26
40982;BME280;26708;50.304;19.028;2022-12-07T07:43:50;97736.03;;;3.50;66.44
40982;BME280;26708;50.304;19.028;2022-12-07T07:45:54;97701.28;;;3.27;66.41
40982;BME280;26708;50.304;19.028;2022-12-07T07:47:59;97673.56;;;3.16;66.29
40982;BME280;26708;50.304;19.028;2022-12-07T07:50:05;97836.84;;;4.20;66.39
40982;BME280;26708;50.304;19.028;2022-12-07T07:52:11;97823.88;;;4.14;66.28
40982;BME280;26708;50.304;19.028;2022-12-07T07:54:15;97842.03;;;4.21;66.49
40982;BME280;26708;50.304;19.028;2022-12-07T07:56:20;97732.53;;;3.45;66.48
40982;BME280;26708;50.304;19.028;2022-12-07T07:58:28;97840.34;;;4.23;66.52
40982;BME280;26708;50.304;19.028;2022-12-07T08:00:32;97744.06;;;3.73;66.51
40982;BME280;26708;50.304;19.028;2022-12-07T08:02:37;97832.59;;;4.28;66.37
40982;BME280;26708;50.304;19.028;2022-12-07T08:04:44;97638.19;;;3.10;66.34
40982;BME280;26708;50.304;19.028;2022-12-07T08:06:49;97843.88;;;4.30;66.48
40982;BME280;26708;50.304;19.028;2022-12-07T08:08:54;97846.44;;;4.28;66.30
40982;BME280;26708;50.304;19.028;2022-12-07T08:10:59;97840.41;;;4.29;66.67
40982;BME280;26708;50.304;19.028;2022-12-07T08:13:04;97849.94;;;4.35;66.68
40982;BME280;26708;50.304;19.028;2022-12-07T08:15:20;97851.69;;;4.36;66.57
40982;BME280;26708;50.304;19.028;2022-12-07T08:17:25;97735.25;;;3.57;66.58
40982;BME280;26708;50.304;19.028;2022-12-07T08:19:29;97839.59;;;4.33;66.43
40982;BME280;26708;50.304;19.028;2022-12-07T08:21:37;97859.50;;;4.39;66.37
40982;BME280;26708;50.304;19.028;2022-12-07T08:23:42;97830.84;;;4.22;66.43
40982;BME280;26708;50.304;19.028;2022-12-07T08:25:47;97781.13;;;3.72;66.38
40982;BME280;26708;50.304;19.028;2022-12-07T08:27:52;97729.13;;;3.49;66.56
40982;BME280;26708;50.304;19.028;2022-12-07T08:29:57;97865.56;;;4.41;66.63
40982;BME280;26708;50.304;19.028;2022-12-07T08:32:04;97877.69;;;4.46;66.52
40982;BME280;26708;50.304;19.028;2022-12-07T08:34:10;97868.22;;;4.48;66.36
40982;BME280;26708;50.304;19.028;2022-12-07T08:36:16;97834.38;;;4.30;66.50
40982;BME280;26708;50.304;19.028;2022-12-07T08:38:20;97869.13;;;4.50;66.46
40982;BME280;26708;50.304;19.028;2022-12-07T08:40:26;97870.84;;;4.51;66.36
40982;BME280;26708;50.304;19.028;2022-12-07T08:42:31;97749.34;;;3.85;66.18
40982;BME280;26708;50.304;19.028;2022-12-07T08:44:40;97752.75;;;3.79;66.40
40982;BME280;26708;50.304;19.028;2022-12-07T08:46:51;97857.91;;;4.54;66.43
40982;BME280;26708;50.304;19.028;2022-12-07T08:49:05;97709.38;;;3.54;66.01
40982;BME280;26708;50.304;19.028;2022-12-07T08:51:11;97845.69;;;4.40;66.34
40982;BME280;26708;50.304;19.028;2022-12-07T08:53:17;97878.69;;;4.60;66.21
40982;BME280;26708;50.304;19.028;2022-12-07T08:55:22;97665.19;;;3.36;66.15
40982;BME280;26708;50.304;19.028;2022-12-07T08:57:28;97846.63;;;4.45;66.20
40982;BME280;26708;50.304;19.028;2022-12-07T08:59:35;97777.13;;;3.99;65.98
40982;BME280;26708;50.304;19.028;2022-12-07T09:01:41;97884.78;;;4.64;65.89
40982;BME280;26708;50.304;19.028;2022-12-07T09:03:45;97751.84;;;3.76;65.64
40982;BME280;26708;50.304;19.028;2022-12-07T09:05:54;97890.00;;;4.65;66.05
40982;BME280;26708;50.304;19.028;2022-12-07T09:08:01;97880.47;;;4.64;66.06
40982;BME280;26708;50.304;19.028;2022-12-07T09:10:06;97827.47;;;4.32;66.06
40982;BME280;26708;50.304;19.028;2022-12-07T09:12:12;97877.84;;;4.61;65.96
40982;BME280;26708;50.304;19.028;2022-12-07T09:14:16;97874.41;;;4.61;66.14
40982;BME280;26708;50.304;19.028;2022-12-07T09:16:21;97870.91;;;4.59;66.01
40982;BME280;26708;50.304;19.028;2022-12-07T09:18:26;97873.50;;;4.59;66.45
40982;BME280;26708;50.304;19.028;2022-12-07T09:20:30;97761.53;;;3.93;66.22
40982;BME280;26708;50.304;19.028;2022-12-07T09:22:38;97770.13;;;3.92;66.36
40982;BME280;26708;50.304;19.028;2022-12-07T09:24:43;97874.38;;;4.59;66.53
40982;BME280;26708;50.304;19.028;2022-12-07T09:26:48;97861.44;;;4.61;66.51
40982;BME280;26708;50.304;19.028;2022-12-07T09:28:52;97824.16;;;4.45;66.64
40982;BME280;26708;50.304;19.028;2022-12-07T09:30:58;97853.69;;;4.64;66.50
40982;BME280;26708;50.304;19.028;2022-12-07T09:33:02;97851.16;;;4.70;66.71
40982;BME280;26708;50.304;19.028;2022-12-07T09:35:07;97847.72;;;4.71;66.75
40982;BME280;26708;50.304;19.028;2022-12-07T09:37:12;97848.63;;;4.79;66.49
40982;BME280;26708;50.304;19.028;2022-12-07T09:39:19;97846.06;;;4.82;66.69
40982;BME280;26708;50.304;19.028;2022-12-07T09:41:26;97797.56;;;4.63;66.58
40982;BME280;26708;50.304;19.028;2022-12-07T09:43:35;97728.94;;;4.17;66.33
40982;BME280;26708;50.304;19.028;2022-12-07T09:45:42;97779.34;;;4.57;66.27
40982;BME280;26708;50.304;19.028;2022-12-07T09:47:48;97718.53;;;4.10;66.33
40982;BME280;26708;50.304;19.028;2022-12-07T09:50:03;97789.84;;;4.72;66.27
40982;BME280;26708;50.304;19.028;2022-12-07T09:52:19;97831.59;;;5.05;66.09
40982;BME280;26708;50.304;19.028;2022-12-07T09:54:34;97836.75;;;5.05;66.00
40982;BME280;26708;50.304;19.028;2022-12-07T09:56:41;97824.69;;;5.05;66.05
40982;BME280;26708;50.304;19.028;2022-12-07T09:58:46;97704.03;;;4.28;66.26
40982;BME280;26708;50.304;19.028;2022-12-07T10:00:54;97836.81;;;5.11;66.03
40982;BME280;26708;50.304;19.028;2022-12-07T10:03:02;97827.28;;;5.08;66.03
40982;BME280;26708;50.304;19.028;2022-12-07T10:05:12;97691.09;;;4.28;66.21
40982;BME280;26708;50.304;19.028;2022-12-07T10:07:18;97812.63;;;5.12;66.07
40982;BME280;26708;50.304;19.028;2022-12-07T10:09:23;97689.44;;;4.41;65.74
40982;BME280;26708;50.304;19.028;2022-12-07T10:11:32;97698.13;;;4.46;65.79
40982;BME280;26708;50.304;19.028;2022-12-07T10:13:38;97701.47;;;4.36;65.96
40982;BME280;26708;50.304;19.028;2022-12-07T10:15:49;97677.28;;;4.32;66.24
40982;BME280;26708;50.304;19.028;2022-12-07T10:17:55;97800.47;;;5.05;66.42
40982;BME280;26708;50.304;19.028;2022-12-07T10:20:16;97693.81;;;4.51;66.69
40982;BME280;26708;50.304;19.028;2022-12-07T10:22:24;97633.22;;;4.23;66.59
40982;BME280;26708;50.304;19.028;2022-12-07T10:24:29;97687.88;;;4.64;66.61
40982;BME280;26708;50.304;19.028;2022-12-07T10:26:40;97640.16;;;4.30;65.86
40982;BME280;26708;50.304;19.028;2022-12-07T10:28:51;97775.47;;;5.13;66.06
40982;BME280;26708;50.304;19.028;2022-12-07T10:30:59;97776.34;;;5.16;66.21
40982;BME280;26708;50.304;19.028;2022-12-07T10:33:27;97749.47;;;5.02;66.10
40982;BME280;26708;50.304;19.028;2022-12-07T10:35:43;97755.53;;;5.06;66.13
40982;BME280;26708;50.304;19.028;2022-12-07T10:37:48;97777.22;;;5.20;66.38
40982;BME280;26708;50.304;19.028;2022-12-07T10:39:55;97779.81;;;5.20;66.27
40982;BME280;26708;50.304;19.028;2022-12-07T10:42:03;97733.91;;;4.96;66.52
40982;BME280;26708;50.304;19.028;2022-12-07T10:44:21;97748.63;;;5.06;66.49
40982;BME280;26708;50.304;19.028;2022-12-07T10:46:48;97713.97;;;4.91;66.26
40982;BME280;26708;50.304;19.028;2022-12-07T10:49:40;97779.88;;;5.30;66.30
40982;BME280;26708;50.304;19.028;2022-12-07T10:52:03;97621.25;;;4.39;66.47
40982;BME280;26708;50.304;19.028;2022-12-07T10:54:21;97781.63;;;5.36;66.71
40982;BME280;26708;50.304;19.028;2022-12-07T10:56:47;97779.06;;;5.37;66.30
40982;BME280;26708;50.304;19.028;2022-12-07T10:59:21;97640.38;;;4.62;65.95
40982;BME280;26708;50.304;19.028;2022-12-07T11:01:46;97734.00;;;5.22;66.03
40982;BME280;26708;50.304;19.028;2022-12-07T11:06:40;97726.22;;;5.17;65.71
40982;BME280;26708;50.304;19.028;2022-12-07T11:09:04;97629.16;;;4.63;65.57
40982;BME280;26708;50.304;19.028;2022-12-07T11:11:27;97767.00;;;5.47;65.40
40982;BME280;26708;50.304;19.028;2022-12-07T11:13:47;97763.56;;;5.49;65.44
40982;BME280;26708;50.304;19.028;2022-12-07T11:16:16;97735.78;;;5.29;65.38
40982;BME280;26708;50.304;19.028;2022-12-07T11:18:32;97761.81;;;5.53;65.19
40982;BME280;26708;50.304;19.028;2022-12-07T11:20:51;97733.19;;;5.33;64.81
40982;BME280;26708;50.304;19.028;2022-12-07T11:23:11;97678.63;;;5.05;64.83
40982;BME280;26708;50.304;19.028;2022-12-07T11:25:28;97752.25;;;5.41;64.54
40982;BME280;26708;50.304;19.028;2022-12-07T11:27:43;97741.03;;;5.38;64.72
40982;BME280;26708;50.304;19.028;2022-12-07T11:30:08;97733.22;;;5.35;64.74